createdAt,value
2023-11-27T00:01:51.735Z,6.63
2023-11-27T00:04:21.454Z,6.05
2023-11-27T00:06:55.698Z,6.65
2023-11-27T00:09:27.831Z,4.28
2023-11-27T00:12:11.799Z,7.43
2023-11-27T00:17:40.535Z,5.55
2023-11-27T00:20:20.140Z,8.27
2023-11-27T00:23:28.432Z,5.28
2023-11-27T00:26:09.612Z,8.40
2023-11-27T00:28:47.523Z,3.20
2023-11-27T00:31:39.550Z,3.60
2023-11-27T00:34:34.060Z,4.90
2023-11-27T00:37:23.784Z,5.82
2023-11-27T00:40:25.777Z,7.70
2023-11-27T00:43:06.125Z,6.53
2023-11-27T00:45:36.001Z,5.13
2023-11-27T00:48:10.984Z,5.07
2023-11-27T00:50:43.596Z,4.28
2023-11-27T00:55:56.281Z,4.15
2023-11-27T00:58:23.371Z,4.25
2023-11-27T01:00:51.086Z,4.40
2023-11-27T01:03:18.333Z,5.07
2023-11-27T01:05:49.068Z,5.03
2023-11-27T01:08:17.384Z,3.97
2023-11-27T01:10:44.815Z,4.05
2023-11-27T01:13:12.410Z,4.28
2023-11-27T01:15:39.997Z,2.47
2023-11-27T01:18:08.737Z,3.42
2023-11-27T01:20:36.243Z,8.15
2023-11-27T01:23:03.785Z,3.45
2023-11-27T01:25:31.458Z,3.15
2023-11-27T01:28:16.651Z,4.60
2023-11-27T01:30:54.580Z,4.93
2023-11-27T01:33:27.525Z,4.40
2023-11-27T01:35:56.049Z,3.35
2023-11-27T01:38:24.796Z,4.82
2023-11-27T01:41:17.979Z,2.58
2023-11-27T01:43:47.701Z,4.07
2023-11-27T01:46:29.302Z,2.50
2023-11-27T01:49:04.901Z,3.80
2023-11-27T01:51:42.519Z,5.70
2023-11-27T01:54:17.512Z,4.10
2023-11-27T01:56:56.557Z,4.72
2023-11-27T01:59:32.710Z,5.47
2023-11-27T02:02:10.057Z,4.07
2023-11-27T02:04:48.165Z,3.58
2023-11-27T02:07:28.615Z,2.58
2023-11-27T02:10:04.849Z,4.05
2023-11-27T02:12:39.795Z,4.45
2023-11-27T02:15:11.577Z,5.50
2023-11-27T02:17:46.066Z,3.45
2023-11-27T02:20:29.435Z,3.88
2023-11-27T02:23:07.697Z,4.30
2023-11-27T02:25:49.321Z,4.03
2023-11-27T02:31:15.055Z,5.25
2023-11-27T02:33:49.424Z,2.70
2023-11-27T02:36:17.593Z,3.10
2023-11-27T02:39:09.069Z,3.85
2023-11-27T02:41:51.004Z,3.60
2023-11-27T02:44:29.338Z,3.40
2023-11-27T02:49:54.265Z,4.10
2023-11-27T02:52:30.344Z,2.08
2023-11-27T02:55:06.996Z,3.22
2023-11-27T02:57:45.390Z,5.05
2023-11-27T03:00:24.853Z,4.40
2023-11-27T03:03:32.761Z,1.98
2023-11-27T03:06:50.371Z,5.43
2023-11-27T03:09:31.977Z,4.53
2023-11-27T03:12:09.823Z,4.07
2023-11-27T03:14:59.851Z,3.08
2023-11-27T03:17:57.266Z,5.53
2023-11-27T03:20:38.728Z,2.38
2023-11-27T03:23:15.400Z,3.28
2023-11-27T03:31:33.513Z,4.63
2023-11-27T03:37:24.830Z,5.88
2023-11-27T03:39:59.425Z,6.25
2023-11-27T03:42:45.358Z,3.85
2023-11-27T03:45:27.086Z,6.40
2023-11-27T03:48:19.403Z,3.60
2023-11-27T03:55:05.967Z,5.32
2023-11-27T03:57:42.361Z,4.40
2023-11-27T04:00:46.823Z,3.25
2023-11-27T04:03:22.170Z,4.13
2023-11-27T04:06:40.002Z,5.80
2023-11-27T04:09:25.781Z,4.00
2023-11-27T04:12:05.874Z,4.88
2023-11-27T04:18:13.272Z,2.40
2023-11-27T04:21:22.119Z,5.97
2023-11-27T04:24:41.866Z,4.40
2023-11-27T04:44:11.975Z,4.10
2023-11-27T04:48:01.526Z,5.63
2023-11-27T04:55:12.597Z,3.72
2023-11-27T04:58:11.947Z,5.00
2023-11-27T05:14:54.484Z,3.97
2023-11-27T05:18:58.853Z,4.25
2023-11-27T06:02:40.598Z,5.60
2023-11-27T06:58:34.842Z,4.40
2023-11-27T08:59:38.443Z,1.92
2023-11-27T12:42:58.492Z,3.50
2023-11-27T12:46:41.170Z,3.42
2023-11-27T13:03:34.537Z,2.25
2023-11-27T14:17:47.168Z,7.13
2023-11-27T14:21:18.383Z,5.10
2023-11-27T14:24:57.201Z,6.75
2023-11-27T16:47:20.333Z,17.60
2023-11-27T16:51:00.234Z,14.32
2023-11-27T16:58:24.006Z,13.23
2023-11-27T17:10:56.964Z,12.65
2023-11-27T19:07:13.360Z,34.22
2023-11-27T20:08:30.919Z,18.48
2023-11-27T20:12:23.487Z,28.52
2023-11-27T20:16:35.229Z,6.80
2023-11-27T20:20:59.288Z,19.27
2023-11-27T20:37:17.492Z,18.48
2023-11-27T21:07:19.560Z,24.27
2023-11-27T21:15:18.747Z,26.58
2023-11-27T21:19:23.760Z,19.23
2023-11-27T21:23:30.924Z,32.63
2023-11-27T21:26:31.584Z,32.08
2023-11-27T21:51:11.343Z,9.60
2023-11-27T21:58:48.663Z,23.40
2023-11-27T22:33:34.506Z,15.43
2023-11-27T22:41:25.938Z,18.42
2023-11-27T22:49:20.204Z,18.38
2023-11-27T23:01:03.274Z,22.63
2023-11-27T23:07:54.506Z,5.13
2023-11-27T23:10:42.083Z,23.85
2023-11-27T23:18:02.521Z,27.63
2023-11-27T23:23:30.515Z,16.30
2023-11-27T23:26:49.450Z,19.40
2023-11-27T23:33:09.812Z,25.15
2023-11-27T23:35:51.352Z,16.30
2023-11-27T23:38:54.891Z,3.97
2023-11-27T23:41:37.179Z,8.38
2023-11-27T23:44:22.597Z,24.27
2023-11-27T23:47:01.049Z,15.48
2023-11-27T23:49:52.825Z,28.33
2023-11-27T23:52:32.170Z,18.33
2023-11-27T23:55:18.978Z,15.65
2023-11-27T23:58:03.684Z,14.50
